Accueil
Images satellite Prévisions 15 joursClimatMétéo marine Cyclones Foudre AéroportsFAQ Actualités A propos
Météo : Europe Afrique Amérique du Nord Amérique du Sud Asie Australie-Océanie Autres
Langues Contact

Florennes, Belgique

Base aérienne

latitude: 50-14N, longitude: 004-39E, altitude: 279 m


METAR: EBFS 311255Z AUTO 25005G17KT 9999 NCD 23/12 Q1015 BLU
short-TAF: EBFS 310541Z 3107/3116 VRB03KT 8000 FEW250 BECMG 3108/3110 18005KT 9999 FEW020
long-TAF: EBFS 301541Z 3019/3107 34010KT 9999 SCT025 TEMPO 3022/3107 FEW025 PROB30 TEMPO 3101/3103 VRB03KT 2000 BR

Heure: 15:28 (13:28 UTC)

Observation

Le bulletin a été fait il y a 33 minutes, à 12:55 UTC  
Vent 05 kt de ouest/sud-ouest avec des rafales jusqu'à 17 kt
Température 23°C
Humidité 50%
Pression 1015 hPa
Visibilité 10 km ou plus

Changer d'unités

Prévision

Le bulletin a été fait il y a 7 heures et 37 minutes, à 05:51 UTC  
Prévision valable du 31 à 07 UTC au 31 à 16 UTC
Vent 03 kt de direction variable
Visibilité 8000 m
Quelques nuages à une hauteur de 25000 ft
Evoluant progressivement
du 31 à 08 UTC au 31 à 10 UTC
Vent 05 kt de sud
Visibilité 10 km ou plus
Quelques nuages à une hauteur de 2000 ft

Prévision

Le bulletin a été fait il y a 21 heures et 37 minutes, à 15:51 UTC  
Prévision valable du 30 à 19 UTC au 31 à 07 UTC
Vent 10 kt de nord/nord-ouest
Visibilité 10 km ou plus
Nuages épars à une hauteur de 2500 ft
Temporairement
du 30 à 22 UTC au 31 à 07 UTC
Quelques nuages à une hauteur de 2500 ft
Probabilité 30% :
Temporairement
du 31 à 01 UTC au 31 à 03 UTC
Vent 03 kt de direction variable
Visibilité 2000 m
brume
Les informations qui figurent sur ce site font l'objet d'une clause de non-responsabilité
Météo : Europe Afrique Amérique du Nord Amérique du Sud Asie Australie-Océanie Autres
Images satellite Prévisions 15 joursClimatMétéo marine Cyclones Foudre AéroportsFAQ Langues Contact Actualités A propos